createdAt,value
2018-04-29T00:00:02.462Z,96781.42
2018-04-29T00:02:29.960Z,96777.48
2018-04-29T00:04:57.479Z,96777.85
2018-04-29T00:07:24.965Z,96779.95
2018-04-29T00:09:52.468Z,96780.84
2018-04-29T00:12:19.993Z,96778.33
2018-04-29T00:14:47.484Z,96780.21
2018-04-29T00:17:14.989Z,96776.89
2018-04-29T00:19:42.497Z,96776.59
2018-04-29T00:22:10.057Z,96772.21
2018-04-29T00:24:37.521Z,96767.07
2018-04-29T00:27:05.057Z,96766.48
2018-04-29T00:29:32.545Z,96772.08
2018-04-29T00:32:00.075Z,96771.11
2018-04-29T00:34:27.564Z,96769.56
2018-04-29T00:36:55.077Z,96773.78
2018-04-29T00:39:22.570Z,96781.04
2018-04-29T00:41:50.098Z,96781.53
2018-04-29T00:44:17.596Z,96769.02
2018-04-29T00:46:45.110Z,96782.30
2018-04-29T00:49:12.599Z,96781.66
2018-04-29T00:51:52.861Z,96776.81
2018-04-29T00:54:20.348Z,96775.25
2018-04-29T00:56:47.843Z,96784.14
2018-04-29T00:59:15.414Z,96784.80
2018-04-29T01:01:42.901Z,96790.20
2018-04-29T01:04:10.402Z,96788.25
2018-04-29T01:06:37.917Z,96788.31
2018-04-29T01:09:06.114Z,96798.16
2018-04-29T01:11:33.611Z,96798.52
2018-04-29T01:14:01.137Z,96806.10
2018-04-29T01:16:28.632Z,96818.08
2018-04-29T01:18:56.137Z,96825.84
2018-04-29T01:21:23.657Z,96836.39
2018-04-29T01:23:51.149Z,96834.17
2018-04-29T01:26:18.641Z,96840.98
2018-04-29T01:28:46.182Z,96842.27
2018-04-29T01:31:13.678Z,96843.59
2018-04-29T01:33:41.161Z,96848.21
2018-04-29T01:36:08.673Z,96849.72
2018-04-29T01:38:36.161Z,96849.66
2018-04-29T01:41:03.654Z,96850.46
2018-04-29T01:43:31.170Z,96853.72
2018-04-29T01:45:58.667Z,96851.83
2018-04-29T01:48:26.190Z,96853.85
2018-04-29T01:50:53.712Z,96854.88
2018-04-29T01:53:21.264Z,96866.75
2018-04-29T01:55:48.763Z,96862.67
2018-04-29T01:58:16.281Z,96865.73
2018-04-29T02:00:43.765Z,96864.95
2018-04-29T02:03:11.253Z,96874.01
2018-04-29T02:05:38.766Z,96861.88
2018-04-29T02:08:06.265Z,96890.28
2018-04-29T02:10:33.762Z,96889.09
2018-04-29T02:13:01.272Z,96889.45
2018-04-29T02:15:28.767Z,96897.52
2018-04-29T02:17:56.267Z,96897.08
2018-04-29T02:20:23.785Z,96897.73
2018-04-29T02:22:51.333Z,96904.22
2018-04-29T02:25:18.845Z,96900.83
2018-04-29T02:27:46.357Z,96886.69
2018-04-29T02:30:13.854Z,96893.08
2018-04-29T02:32:41.345Z,96894.64
2018-04-29T02:35:08.872Z,96900.36
2018-04-29T02:37:36.371Z,96900.61
2018-04-29T02:40:03.878Z,96905.81
2018-04-29T02:42:31.389Z,96907.81
2018-04-29T02:44:58.886Z,96905.62
2018-04-29T02:47:26.379Z,96900.77
2018-04-29T02:49:53.890Z,96903.78
2018-04-29T02:52:21.386Z,96903.09
2018-04-29T02:54:48.871Z,96892.84
2018-04-29T02:57:16.386Z,96893.94
2018-04-29T02:59:43.874Z,96886.54
2018-04-29T03:02:11.368Z,96878.53
2018-04-29T03:04:38.885Z,96881.25
2018-04-29T03:07:06.374Z,96876.43
2018-04-29T03:09:33.865Z,96880.16
2018-04-29T03:12:01.391Z,96880.93
2018-04-29T03:14:28.886Z,96880.95
2018-04-29T03:16:56.378Z,96886.22
2018-04-29T03:19:23.889Z,96885.59
2018-04-29T03:21:51.383Z,96873.98
2018-04-29T03:24:18.878Z,96865.48
2018-04-29T03:26:46.403Z,96867.95
2018-04-29T03:29:13.901Z,96874.80
2018-04-29T03:31:41.382Z,96880.44
2018-04-29T03:34:08.898Z,96868.06
2018-04-29T03:36:36.398Z,96863.10
2018-04-29T03:39:03.890Z,96862.34
2018-04-29T03:41:31.414Z,96862.33
2018-04-29T03:43:58.910Z,96861.67
2018-04-29T03:46:26.406Z,96860.69
2018-04-29T03:48:53.918Z,96858.16
2018-04-29T03:51:21.438Z,96849.02
2018-04-29T03:53:48.935Z,96831.14
2018-04-29T03:56:16.445Z,96850.97
2018-04-29T03:58:55.804Z,96850.35
2018-04-29T04:01:35.182Z,96842.55
2018-04-29T04:04:02.681Z,96853.25
2018-04-29T04:06:30.170Z,96858.59
2018-04-29T04:08:57.686Z,96856.38
2018-04-29T04:11:25.173Z,96857.73
2018-04-29T04:13:52.665Z,96854.02
2018-04-29T04:16:20.180Z,96858.78
2018-04-29T04:18:47.669Z,96860.21
2018-04-29T04:21:15.157Z,96852.55
2018-04-29T04:23:42.696Z,96851.11
2018-04-29T04:26:10.173Z,96853.56
2018-04-29T04:28:37.654Z,96864.34
2018-04-29T04:31:05.166Z,96867.09
2018-04-29T04:33:32.652Z,96869.37
2018-04-29T04:36:00.141Z,96849.70
2018-04-29T04:38:27.666Z,96864.31
2018-04-29T04:40:55.181Z,96864.59
2018-04-29T04:43:22.674Z,96860.66
2018-04-29T04:45:50.188Z,96868.05
2018-04-29T04:48:17.673Z,96869.82
2018-04-29T04:50:45.184Z,96876.21
2018-04-29T04:53:12.689Z,96880.12
2018-04-29T04:55:40.175Z,96875.89
2018-04-29T04:58:07.672Z,96878.09
2018-04-29T05:00:35.190Z,96876.00
2018-04-29T05:03:02.673Z,96871.25
2018-04-29T05:05:30.174Z,96879.61
2018-04-29T05:07:57.690Z,96866.27
2018-04-29T05:10:25.174Z,96870.27
2018-04-29T05:12:52.653Z,96867.91
2018-04-29T05:15:20.178Z,96855.34
2018-04-29T05:17:47.673Z,96858.57
2018-04-29T05:20:15.166Z,96857.19
2018-04-29T05:22:42.689Z,96863.38
2018-04-29T05:25:10.178Z,96863.27
2018-04-29T05:27:37.676Z,96874.05
2018-04-29T05:30:05.194Z,96877.68
2018-04-29T05:32:32.680Z,96870.45
2018-04-29T05:35:00.165Z,96867.92
2018-04-29T05:37:27.682Z,96863.41
2018-04-29T05:39:55.181Z,96877.00
2018-04-29T05:42:22.658Z,96879.23
2018-04-29T05:44:50.161Z,96878.77
2018-04-29T05:47:17.650Z,96876.87
2018-04-29T05:49:45.159Z,96876.67
2018-04-29T05:52:12.674Z,96867.87
2018-04-29T05:54:40.158Z,96866.14
2018-04-29T05:57:07.646Z,96876.05
2018-04-29T05:59:35.167Z,96879.44
2018-04-29T06:02:02.666Z,96876.13
2018-04-29T06:04:30.165Z,96869.74
2018-04-29T06:06:57.682Z,96870.34
2018-04-29T06:09:25.179Z,96866.98
2018-04-29T06:11:53.585Z,96873.24
2018-04-29T06:14:21.107Z,96875.22
2018-04-29T06:16:48.589Z,96872.14
2018-04-29T06:19:16.091Z,96873.62
2018-04-29T06:21:43.625Z,96871.62
2018-04-29T06:24:11.113Z,96876.92
2018-04-29T06:26:38.615Z,96874.86
2018-04-29T06:29:06.139Z,96869.11
2018-04-29T06:31:33.621Z,96864.68
2018-04-29T06:34:01.109Z,96867.26
2018-04-29T06:36:28.634Z,96864.95
2018-04-29T06:38:56.172Z,96856.73
2018-04-29T06:41:23.625Z,96848.78
2018-04-29T06:43:51.148Z,96846.03
2018-04-29T06:46:18.633Z,96837.91
2018-04-29T06:48:46.123Z,96835.00
2018-04-29T06:51:13.639Z,96830.84
2018-04-29T06:53:41.144Z,96817.66
2018-04-29T06:56:08.647Z,96804.11
2018-04-29T06:58:36.157Z,96820.55
2018-04-29T07:01:03.651Z,96819.28
2018-04-29T07:03:31.133Z,96816.33
2018-04-29T07:05:58.662Z,96829.98
2018-04-29T07:08:26.149Z,96820.19
2018-04-29T07:10:53.637Z,96831.03
2018-04-29T07:13:21.169Z,96807.12
2018-04-29T07:15:48.742Z,96823.50
2018-04-29T07:18:16.238Z,96829.53
2018-04-29T07:20:43.749Z,96819.00
2018-04-29T07:23:11.250Z,96812.91
2018-04-29T07:25:38.736Z,96811.81
2018-04-29T07:28:06.248Z,96810.91
2018-04-29T07:30:33.733Z,96811.59
2018-04-29T07:33:01.232Z,96811.69
2018-04-29T07:35:28.753Z,96802.13
2018-04-29T07:37:56.245Z,96810.59
2018-04-29T07:40:23.733Z,96806.02
2018-04-29T07:42:51.252Z,96801.13
2018-04-29T07:45:18.792Z,96797.59
2018-04-29T07:47:46.295Z,96795.98
2018-04-29T07:50:13.826Z,96790.63
2018-04-29T07:52:41.346Z,96793.22
2018-04-29T07:55:08.833Z,96797.20
2018-04-29T07:57:36.366Z,96791.98
2018-04-29T08:00:03.866Z,96788.00
2018-04-29T08:02:31.386Z,96802.80
2018-04-29T08:04:58.897Z,96798.88
2018-04-29T08:07:26.408Z,96801.91
2018-04-29T08:09:53.905Z,96802.66
2018-04-29T08:12:21.475Z,96799.64
2018-04-29T08:14:48.961Z,96796.11
2018-04-29T08:17:16.459Z,96794.52
2018-04-29T08:19:43.979Z,96776.42
2018-04-29T08:22:11.473Z,96777.97
2018-04-29T08:24:38.961Z,96751.80
2018-04-29T08:27:06.481Z,96780.53
2018-04-29T08:29:33.964Z,96773.00
2018-04-29T08:32:01.467Z,96785.80
2018-04-29T08:34:28.985Z,96780.67
2018-04-29T08:36:56.492Z,96766.13
2018-04-29T08:39:24.034Z,96761.84
2018-04-29T08:41:51.563Z,96760.98
2018-04-29T08:44:19.070Z,96758.42
2018-04-29T08:46:46.567Z,96760.09
2018-04-29T08:49:14.120Z,96757.98
2018-04-29T08:51:41.601Z,96765.71
2018-04-29T08:54:09.107Z,96769.96
2018-04-29T08:56:36.685Z,96761.34
2018-04-29T08:59:04.177Z,96754.52
2018-04-29T09:01:31.669Z,96766.83
2018-04-29T09:04:00.330Z,96761.30
2018-04-29T09:06:27.834Z,96758.29
2018-04-29T09:08:55.321Z,96757.55
2018-04-29T09:11:22.846Z,96749.95
2018-04-29T09:13:50.346Z,96756.47
2018-04-29T09:16:17.859Z,96746.06
2018-04-29T09:18:45.388Z,96744.82
2018-04-29T09:21:12.889Z,96734.67
2018-04-29T09:23:40.429Z,96733.66
2018-04-29T09:26:07.951Z,96723.42
2018-04-29T09:28:35.441Z,96716.78
2018-04-29T09:31:02.937Z,96716.21
2018-04-29T09:33:30.458Z,96708.45
2018-04-29T09:35:57.955Z,96721.42
2018-04-29T09:38:25.462Z,96725.86
2018-04-29T09:40:52.981Z,96728.83
2018-04-29T09:43:20.573Z,96720.89
2018-04-29T09:45:48.062Z,96717.89
2018-04-29T09:48:15.583Z,96714.39
2018-04-29T09:50:43.082Z,96711.80
2018-04-29T09:53:10.583Z,96702.95
2018-04-29T09:55:38.133Z,96697.86
2018-04-29T09:58:05.635Z,96697.19
2018-04-29T10:00:33.136Z,96701.77
2018-04-29T10:03:06.185Z,96703.98
2018-04-29T10:05:33.685Z,96688.08
2018-04-29T10:08:01.189Z,96684.87
2018-04-29T10:10:28.725Z,96683.38
2018-04-29T10:12:56.221Z,96683.55
2018-04-29T10:15:23.717Z,96673.52
2018-04-29T10:17:51.242Z,96675.12
2018-04-29T10:20:18.764Z,96661.73
2018-04-29T10:22:46.253Z,96672.24
2018-04-29T10:25:13.788Z,96671.59
2018-04-29T10:27:41.289Z,96662.16
2018-04-29T10:30:08.792Z,96665.36
2018-04-29T10:32:36.319Z,96667.54
2018-04-29T10:35:03.833Z,96662.30
2018-04-29T10:37:31.333Z,96650.05
2018-04-29T10:39:58.853Z,96642.98
2018-04-29T10:42:26.345Z,96647.70
2018-04-29T10:44:53.837Z,96649.18
2018-04-29T10:47:21.353Z,96640.17
2018-04-29T10:49:49.729Z,96634.19
2018-04-29T10:52:17.236Z,96622.18
2018-04-29T10:54:44.766Z,96624.67
2018-04-29T10:57:12.265Z,96619.78
2018-04-29T10:59:39.775Z,96610.33
2018-04-29T11:02:07.293Z,96611.77
2018-04-29T11:04:34.810Z,96608.38
2018-04-29T11:07:02.314Z,96606.02
2018-04-29T11:09:29.846Z,96592.92
2018-04-29T11:11:57.346Z,96596.23
2018-04-29T11:14:24.840Z,96592.73
2018-04-29T11:16:52.396Z,96597.72
2018-04-29T11:19:19.883Z,96600.73
2018-04-29T11:21:47.415Z,96601.41
2018-04-29T11:24:14.929Z,96603.30
2018-04-29T11:26:42.435Z,96598.10
2018-04-29T11:29:09.930Z,96600.22
2018-04-29T11:31:37.464Z,96596.02
2018-04-29T11:34:04.975Z,96591.07
2018-04-29T11:36:32.473Z,96589.45
2018-04-29T11:38:59.994Z,96591.94
2018-04-29T11:41:27.488Z,96584.02
2018-04-29T11:43:54.990Z,96572.78
2018-04-29T11:46:22.518Z,96567.64
2018-04-29T11:48:50.022Z,96571.39
2018-04-29T11:51:17.532Z,96562.50
2018-04-29T11:53:45.054Z,96559.53
2018-04-29T11:56:12.544Z,96564.73
2018-04-29T11:58:40.048Z,96553.84
2018-04-29T12:01:11.412Z,96550.59
2018-04-29T12:03:38.934Z,96559.30
2018-04-29T12:06:06.443Z,96554.80
2018-04-29T12:08:33.965Z,96543.67
2018-04-29T12:11:01.463Z,96550.82
2018-04-29T12:13:28.962Z,96541.39
2018-04-29T12:15:56.484Z,96525.73
2018-04-29T12:18:23.985Z,96536.26
2018-04-29T12:20:51.482Z,96534.77
2018-04-29T12:23:19.995Z,96528.05
2018-04-29T12:25:47.500Z,96527.25
2018-04-29T12:28:15.004Z,96527.64
2018-04-29T12:30:42.535Z,96514.52
2018-04-29T12:33:10.053Z,96514.47
2018-04-29T12:35:37.548Z,96516.38
2018-04-29T12:38:05.076Z,96509.46
2018-04-29T12:40:32.571Z,96505.81
2018-04-29T12:43:00.074Z,96501.47
2018-04-29T12:45:27.610Z,96501.00
2018-04-29T12:47:55.119Z,96493.59
2018-04-29T12:50:22.615Z,96493.18
2018-04-29T12:52:50.154Z,96489.05
2018-04-29T12:55:17.654Z,96492.65
2018-04-29T12:57:45.155Z,96491.03
2018-04-29T13:00:12.742Z,96484.86
2018-04-29T13:02:40.204Z,96484.66
2018-04-29T13:05:07.693Z,96471.95
2018-04-29T13:07:35.209Z,96468.03
2018-04-29T13:10:02.726Z,96465.68
2018-04-29T13:12:30.235Z,96466.89
2018-04-29T13:14:57.767Z,96450.27
2018-04-29T13:17:25.260Z,96448.42
2018-04-29T13:19:52.759Z,96440.02
2018-04-29T13:22:20.289Z,96431.93
2018-04-29T13:24:47.789Z,96428.88
2018-04-29T13:27:15.281Z,96431.03
2018-04-29T13:29:42.812Z,96419.84
2018-04-29T13:32:10.319Z,96419.37
2018-04-29T13:34:37.818Z,96411.42
2018-04-29T13:37:05.358Z,96407.05
2018-04-29T13:39:32.877Z,96399.98
2018-04-29T13:42:00.407Z,96391.81
2018-04-29T13:44:27.929Z,96399.88
2018-04-29T13:46:55.461Z,96389.95
2018-04-29T13:49:22.954Z,96390.03
2018-04-29T13:51:50.478Z,96381.61
2018-04-29T13:54:17.969Z,96378.20
2018-04-29T13:56:45.493Z,96361.98
2018-04-29T13:59:13.009Z,96361.25
2018-04-29T14:01:40.523Z,96354.52
2018-04-29T14:04:08.013Z,96349.98
2018-04-29T14:06:35.533Z,96350.41
2018-04-29T14:09:03.021Z,96342.16
2018-04-29T14:11:30.551Z,96345.70
2018-04-29T14:13:58.070Z,96331.16
2018-04-29T14:16:25.571Z,96333.09
2018-04-29T14:18:53.070Z,96326.70
2018-04-29T14:21:20.597Z,96319.69
2018-04-29T14:23:48.101Z,96314.70
2018-04-29T14:26:15.605Z,96308.30
2018-04-29T14:28:43.126Z,96302.69
2018-04-29T14:31:10.635Z,96299.16
2018-04-29T14:33:38.139Z,96296.59
2018-04-29T14:36:05.687Z,96298.45
2018-04-29T14:38:33.197Z,96290.52
2018-04-29T14:41:00.706Z,96280.06
2018-04-29T14:43:28.226Z,96285.74
2018-04-29T14:45:55.728Z,96278.79
2018-04-29T14:48:23.233Z,96275.89
2018-04-29T14:50:50.758Z,96278.70
2018-04-29T14:53:18.263Z,96275.75
2018-04-29T14:55:45.763Z,96278.22
2018-04-29T14:58:13.287Z,96274.45
2018-04-29T15:00:40.798Z,96263.70
2018-04-29T15:03:08.299Z,96266.45
2018-04-29T15:05:35.813Z,96261.91
2018-04-29T15:08:03.312Z,96260.97
2018-04-29T15:10:30.818Z,96256.72
2018-04-29T15:12:58.366Z,96253.45
2018-04-29T15:15:25.872Z,96251.45
2018-04-29T15:17:53.377Z,96249.05
2018-04-29T15:20:20.897Z,96250.32
2018-04-29T15:22:48.393Z,96247.94
2018-04-29T15:25:15.897Z,96247.65
2018-04-29T15:27:43.431Z,96245.29
2018-04-29T15:30:10.939Z,96242.02
2018-04-29T15:32:38.438Z,96236.28
2018-04-29T15:35:05.978Z,96228.09
2018-04-29T15:37:33.484Z,96226.07
2018-04-29T15:40:00.987Z,96224.75
2018-04-29T15:42:28.514Z,96221.84
2018-04-29T15:44:56.039Z,96215.26
2018-04-29T15:47:23.550Z,96209.64
2018-04-29T15:49:51.078Z,96214.66
2018-04-29T15:52:18.575Z,96204.64
2018-04-29T15:54:46.061Z,96212.13
2018-04-29T15:57:13.599Z,96197.14
2018-04-29T15:59:41.099Z,96189.09
2018-04-29T16:02:08.599Z,96179.30
2018-04-29T16:04:36.143Z,96180.69
2018-04-29T16:07:03.633Z,96177.85
2018-04-29T16:09:31.139Z,96172.72
2018-04-29T16:11:58.662Z,96165.14
2018-04-29T16:14:26.171Z,96163.02
2018-04-29T16:16:53.735Z,96166.00
2018-04-29T16:19:21.257Z,96164.80
2018-04-29T16:21:48.760Z,96164.53
2018-04-29T16:24:16.266Z,96162.98
2018-04-29T16:26:43.790Z,96158.45
2018-04-29T16:29:11.285Z,96165.41
2018-04-29T16:31:38.777Z,96161.22
2018-04-29T16:34:06.369Z,96160.84
2018-04-29T16:36:33.874Z,96156.97
2018-04-29T16:39:01.413Z,96159.52
2018-04-29T16:41:28.977Z,96152.16
2018-04-29T16:43:56.479Z,96149.16
2018-04-29T16:46:23.992Z,96140.09
2018-04-29T16:48:51.514Z,96128.06
2018-04-29T16:51:19.019Z,96135.38
2018-04-29T16:53:46.525Z,96125.95
2018-04-29T16:56:14.993Z,96123.47
2018-04-29T16:58:42.510Z,96130.45
2018-04-29T17:01:10.039Z,96128.87
2018-04-29T17:03:37.556Z,96123.41
2018-04-29T17:06:05.058Z,96123.91
2018-04-29T17:08:33.494Z,96119.70
2018-04-29T17:11:01.020Z,96120.62
2018-04-29T17:13:28.523Z,96116.03
2018-04-29T17:15:56.052Z,96115.20
2018-04-29T17:18:23.579Z,96112.63
2018-04-29T17:20:51.082Z,96104.95
2018-04-29T17:23:18.577Z,96105.39
2018-04-29T17:25:46.105Z,96105.43
2018-04-29T17:28:13.614Z,96102.47
2018-04-29T17:30:41.114Z,96101.19
2018-04-29T17:33:08.641Z,96097.77
2018-04-29T17:35:36.217Z,96086.66
2018-04-29T17:38:03.716Z,96088.00
2018-04-29T17:40:31.248Z,96075.64
2018-04-29T17:42:58.754Z,96071.84
2018-04-29T17:45:26.252Z,96065.88
2018-04-29T17:47:53.785Z,96065.08
2018-04-29T17:50:21.286Z,96068.11
2018-04-29T17:52:48.794Z,96074.52
2018-04-29T17:55:16.326Z,96066.43
2018-04-29T17:57:43.832Z,96060.84
2018-04-29T18:00:11.330Z,96058.34
2018-04-29T18:02:38.856Z,96062.63
2018-04-29T18:05:06.394Z,96055.80
2018-04-29T18:07:33.904Z,96059.17
2018-04-29T18:10:01.483Z,96055.33
2018-04-29T18:12:28.991Z,96057.46
2018-04-29T18:14:56.507Z,96057.06
2018-04-29T18:17:24.034Z,96053.63
2018-04-29T18:19:51.545Z,96054.48
2018-04-29T18:22:19.055Z,96053.17
2018-04-29T18:24:46.579Z,96054.02
2018-04-29T18:27:14.083Z,96052.30
2018-04-29T18:29:41.591Z,96050.54
2018-04-29T18:32:09.110Z,96045.81
2018-04-29T18:34:36.602Z,96038.98
2018-04-29T18:37:04.097Z,96039.84
2018-04-29T18:39:31.674Z,96036.00
2018-04-29T18:41:59.143Z,96032.12
2018-04-29T18:44:26.650Z,96036.33
2018-04-29T18:46:54.169Z,96037.99
2018-04-29T18:49:21.664Z,96041.77
2018-04-29T18:51:49.175Z,96043.78
2018-04-29T18:54:16.695Z,96040.34
2018-04-29T18:56:44.203Z,96040.68
2018-04-29T18:59:11.706Z,96051.23
2018-04-29T19:01:39.231Z,96045.20
2018-04-29T19:04:06.732Z,96046.88
2018-04-29T19:06:34.232Z,96047.20
2018-04-29T19:09:01.759Z,96052.55
2018-04-29T19:11:29.265Z,96052.42
2018-04-29T19:13:56.765Z,96057.41
2018-04-29T19:16:24.282Z,96053.46
2018-04-29T19:18:51.787Z,96044.36
2018-04-29T19:21:19.305Z,96045.58
2018-04-29T19:23:46.857Z,96051.45
2018-04-29T19:26:14.357Z,96046.28
2018-04-29T19:28:41.864Z,96038.06
2018-04-29T19:31:09.513Z,96033.83
2018-04-29T19:33:37.011Z,96041.97
2018-04-29T19:36:04.513Z,96035.64
2018-04-29T19:38:32.103Z,96031.46
2018-04-29T19:40:59.547Z,96037.23
2018-04-29T19:43:27.108Z,96029.37
2018-04-29T19:45:54.626Z,96025.36
2018-04-29T19:48:22.125Z,96026.09
2018-04-29T19:50:49.622Z,96025.62
2018-04-29T19:53:17.141Z,96027.27
2018-04-29T19:55:44.628Z,96020.34
2018-04-29T19:58:12.121Z,96018.48
2018-04-29T20:00:39.640Z,96020.41
2018-04-29T20:03:07.134Z,96020.26
2018-04-29T20:05:34.622Z,96022.70
2018-04-29T20:08:02.152Z,96015.34
2018-04-29T20:10:29.669Z,96017.78
2018-04-29T20:12:57.165Z,96012.58
2018-04-29T20:15:24.686Z,96007.33
2018-04-29T20:17:52.178Z,96007.23
2018-04-29T20:20:19.673Z,96003.73
2018-04-29T20:22:47.202Z,95993.80
2018-04-29T20:25:14.713Z,95988.58
2018-04-29T20:27:42.218Z,95970.41
2018-04-29T20:30:09.749Z,95985.34
2018-04-29T20:32:55.029Z,95988.91
2018-04-29T20:35:22.552Z,95984.48
2018-04-29T20:37:50.055Z,95988.70
2018-04-29T20:40:17.614Z,95980.99
2018-04-29T20:42:45.133Z,95975.50
2018-04-29T20:45:12.953Z,95977.07
2018-04-29T20:47:40.477Z,95975.55
2018-04-29T20:50:08.061Z,95966.45
2018-04-29T20:52:36.445Z,95964.35
2018-04-29T20:55:03.982Z,95952.80
2018-04-29T20:57:31.505Z,95953.55
2018-04-29T20:59:59.065Z,95951.23
2018-04-29T21:02:26.566Z,95943.64
2018-04-29T21:04:54.092Z,95944.39
2018-04-29T21:07:21.586Z,95945.20
2018-04-29T21:09:49.118Z,95940.12
2018-04-29T21:12:16.656Z,95934.06
2018-04-29T21:14:44.155Z,95933.00
2018-04-29T21:17:11.706Z,95925.58
2018-04-29T21:19:39.204Z,95930.83
2018-04-29T21:22:06.707Z,95927.30
2018-04-29T21:24:34.216Z,95921.72
2018-04-29T21:27:02.586Z,95912.38
2018-04-29T21:29:30.084Z,95915.56
2018-04-29T21:31:57.581Z,95920.20
2018-04-29T21:34:25.098Z,95917.14
2018-04-29T21:36:52.644Z,95910.95
2018-04-29T21:39:20.153Z,95898.00
2018-04-29T21:41:47.678Z,95907.08
2018-04-29T21:44:15.170Z,95902.19
2018-04-29T21:46:42.817Z,95901.72
2018-04-29T21:49:10.343Z,95901.63
2018-04-29T21:51:37.840Z,95888.59
2018-04-29T21:54:05.358Z,95895.66
2018-04-29T21:56:32.885Z,95898.94
2018-04-29T21:59:00.423Z,95905.81
2018-04-29T22:01:27.946Z,95903.05
2018-04-29T22:03:55.468Z,95905.78
2018-04-29T22:06:23.221Z,95912.09
2018-04-29T22:08:50.747Z,95888.73
2018-04-29T22:11:18.435Z,95908.59
2018-04-29T22:13:45.963Z,95900.31
2018-04-29T22:16:13.626Z,95905.22
2018-04-29T22:18:41.323Z,95905.81
2018-04-29T22:21:08.881Z,95906.84
2018-04-29T22:23:36.379Z,95910.47
2018-04-29T22:26:03.905Z,95915.69
2018-04-29T22:28:31.531Z,95917.35
2018-04-29T22:30:59.182Z,95912.36
2018-04-29T22:33:26.842Z,95907.69
2018-04-29T22:35:54.604Z,95912.17
2018-04-29T22:38:22.460Z,95911.30
2018-04-29T22:40:50.018Z,95914.05
2018-04-29T22:43:17.880Z,95907.07
2018-04-29T22:45:45.414Z,95906.05
2018-04-29T22:48:12.929Z,95913.26
2018-04-29T22:50:40.708Z,95908.87
2018-04-29T22:53:08.547Z,95905.73
2018-04-29T22:55:36.292Z,95901.75
2018-04-29T22:58:03.781Z,95893.45
2018-04-29T23:00:31.271Z,95889.14
2018-04-29T23:02:58.907Z,95882.66
2018-04-29T23:05:26.457Z,95880.81
2018-04-29T23:07:53.960Z,95870.75
2018-04-29T23:10:21.481Z,95866.88
2018-04-29T23:12:48.985Z,95866.27
2018-04-29T23:15:16.477Z,95865.68
2018-04-29T23:17:44.002Z,95865.61
2018-04-29T23:20:11.510Z,95864.89
2018-04-29T23:22:39.004Z,95852.66
2018-04-29T23:25:06.529Z,95853.52
2018-04-29T23:27:34.034Z,95856.70
2018-04-29T23:30:01.535Z,95849.35
2018-04-29T23:32:29.058Z,95847.46
2018-04-29T23:34:56.562Z,95836.67
2018-04-29T23:37:24.061Z,95833.20
2018-04-29T23:39:51.618Z,95831.53
2018-04-29T23:42:19.110Z,95825.09
2018-04-29T23:44:46.609Z,95836.00
2018-04-29T23:47:14.151Z,95827.50
2018-04-29T23:49:41.652Z,95823.63
2018-04-29T23:52:09.152Z,95817.58
2018-04-29T23:54:36.682Z,95817.66
2018-04-29T23:57:04.185Z,95821.14
2018-04-29T23:59:31.687Z,95819.11
